Time;durP1;ratioP1;P1;durP2;ratioP2;P2;SDS_P1;SDS_P2;PMS_P1;PMS_P2;Temp;Humidity;BMP_temperature;BMP_pressure;BME280_temperature;BME280_humidity;BME280_pressure;Samples;Min_cycle;Max_cycle;Signal;HPM_P1;HPM_P2
2021/10/16 00:00:56;;;;;;;16.15;8.35;;;6.90;99.90;;;;;;5030599;28;20049;-74
2021/10/16 00:03:25;;;;;;;17.85;8.63;;;6.80;99.90;;;;;;5031217;28;20048;-74
2021/10/16 00:05:52;;;;;;;14.10;8.68;;;6.70;99.90;;;;;;5029992;28;20126;-74
2021/10/16 00:08:19;;;;;;;13.25;7.55;;;6.70;99.90;;;;;;5033145;28;20067;-73
2021/10/16 00:10:46;;;;;;;14.60;7.75;;;6.60;99.90;;;;;;5031400;28;20460;-72
2021/10/16 00:13:13;;;;;;;15.50;8.23;;;6.60;99.90;;;;;;5030861;28;20049;-72
2021/10/16 00:15:40;;;;;;;18.27;9.63;;;6.60;99.90;;;;;;5031043;28;20508;-72
2021/10/16 00:18:07;;;;;;;13.50;7.78;;;6.50;99.90;;;;;;5030633;28;20049;-72
2021/10/16 00:20:36;;;;;;;15.23;8.00;;;6.40;99.90;;;;;;5032220;28;20053;-72
2021/10/16 00:23:03;;;;;;;15.57;8.52;;;6.40;99.90;;;;;;5030510;28;20567;-72
2021/10/16 00:25:30;;;;;;;16.27;8.25;;;6.30;99.90;;;;;;5030134;28;20488;-72
2021/10/16 00:27:57;;;;;;;24.33;9.80;;;6.40;99.90;;;;;;5031217;28;20114;-72
2021/10/16 00:30:24;;;;;;;20.95;10.32;;;6.40;99.90;;;;;;5031559;28;20095;-72
2021/10/16 00:32:51;;;;;;;18.17;9.60;;;6.50;99.90;;;;;;5031660;28;20049;-72
2021/10/16 00:35:18;;;;;;;24.95;12.25;;;6.40;99.90;;;;;;5030131;28;20045;-72
2021/10/16 00:37:46;;;;;;;24.55;12.77;;;6.50;99.90;;;;;;5031217;28;20049;-72
2021/10/16 00:40:14;;;;;;;22.58;11.52;;;6.60;99.90;;;;;;5030688;28;20455;-72
2021/10/16 00:42:45;;;;;;;34.20;13.77;;;6.70;99.90;;;;;;5030467;28;20130;-72
2021/10/16 00:45:12;;;;;;;62.65;16.58;;;6.80;99.90;;;;;;5030317;28;20041;-72
2021/10/16 00:47:39;;;;;;;83.07;17.33;;;6.90;99.90;;;;;;5030221;28;20421;-72
2021/10/16 00:50:07;;;;;;;113.80;18.95;;;7.10;99.90;;;;;;5030157;28;20045;-72
2021/10/16 00:52:35;;;;;;;130.13;18.83;;;7.00;99.90;;;;;;5029862;28;20485;-72
2021/10/16 00:55:06;;;;;;;104.38;19.63;;;7.00;99.90;;;;;;5030064;28;20862;-72
2021/10/16 00:57:33;;;;;;;157.57;21.63;;;7.00;99.90;;;;;;5030220;28;21286;-72
2021/10/16 01:00:00;;;;;;;100.47;16.13;;;7.00;99.90;;;;;;5030066;28;20045;-75
2021/10/16 01:02:27;;;;;;;342.10;23.27;;;7.00;99.90;;;;;;5029286;28;20141;-72
2021/10/16 01:04:55;;;;;;;175.85;17.63;;;7.00;99.90;;;;;;5029156;28;20041;-72
2021/10/16 01:07:22;;;;;;;161.23;20.35;;;6.90;99.90;;;;;;5028086;28;20052;-72
2021/10/16 01:09:49;;;;;;;135.77;17.38;;;6.90;99.90;;;;;;5030362;28;20049;-72
2021/10/16 01:12:17;;;;;;;121.93;16.00;;;6.90;99.90;;;;;;5029065;28;20102;-72
2021/10/16 01:14:48;;;;;;;521.33;31.25;;;6.90;99.90;;;;;;5030050;28;20060;-72
2021/10/16 01:17:18;;;;;;;376.65;25.02;;;6.80;99.90;;;;;;5029356;28;20048;-72
2021/10/16 01:19:46;;;;;;;199.32;21.95;;;6.70;99.90;;;;;;5029494;28;20755;-72
2021/10/16 01:22:15;;;;;;;184.20;16.42;;;6.70;99.90;;;;;;5030088;28;20571;-72
2021/10/16 01:24:42;;;;;;;120.85;16.20;;;6.80;99.90;;;;;;5029954;28;20047;-72
2021/10/16 01:27:12;;;;;;;260.05;25.63;;;6.90;99.90;;;;;;5028632;28;20420;-72
2021/10/16 01:29:40;;;;;;;133.32;16.92;;;6.90;99.90;;;;;;5029255;28;20057;-72
2021/10/16 01:32:07;;;;;;;139.38;18.98;;;6.90;99.90;;;;;;5029364;28;20080;-72
2021/10/16 01:34:34;;;;;;;119.38;16.08;;;6.90;99.90;;;;;;5028916;28;20064;-72
2021/10/16 01:37:01;;;;;;;93.55;15.10;;;6.90;99.90;;;;;;5029196;28;20056;-72
2021/10/16 01:39:31;;;;;;;120.93;16.58;;;6.90;99.90;;;;;;5029118;28;20049;-72
2021/10/16 01:41:58;;;;;;;157.85;19.15;;;7.00;99.90;;;;;;5029855;28;20111;-72
2021/10/16 01:44:25;;;;;;;73.70;15.50;;;6.90;99.90;;;;;;5029334;28;20048;-72
2021/10/16 01:46:52;;;;;;;85.88;14.57;;;6.80;99.90;;;;;;5028361;28;20044;-72
2021/10/16 01:49:21;;;;;;;84.10;14.88;;;6.80;99.90;;;;;;5029540;28;20083;-72
2021/10/16 01:51:49;;;;;;;114.15;15.05;;;6.70;99.90;;;;;;5029371;28;20127;-72
2021/10/16 01:54:16;;;;;;;110.35;13.38;;;6.60;99.90;;;;;;5028860;28;20051;-74
2021/10/16 01:56:45;;;;;;;110.20;13.35;;;6.40;99.90;;;;;;5029128;28;20481;-72
2021/10/16 01:59:16;;;;;;;53.25;11.68;;;6.40;99.90;;;;;;5028620;28;20110;-72
2021/10/16 02:01:44;;;;;;;81.68;12.52;;;6.50;99.90;;;;;;5028633;28;20114;-73
2021/10/16 02:04:11;;;;;;;137.30;13.93;;;6.50;99.90;;;;;;5029068;28;20127;-72
2021/10/16 02:06:38;;;;;;;69.60;13.18;;;6.30;99.90;;;;;;5028643;28;20041;-73
2021/10/16 02:09:06;;;;;;;63.58;12.90;;;6.30;99.90;;;;;;5032677;28;20508;-72
2021/10/16 02:11:33;;;;;;;115.50;15.43;;;6.40;99.90;;;;;;5033858;28;20041;-72
2021/10/16 02:14:03;;;;;;;194.80;18.88;;;6.40;99.90;;;;;;5033382;28;20053;-73
2021/10/16 02:16:30;;;;;;;167.25;17.83;;;6.50;99.90;;;;;;5032692;28;20495;-73
2021/10/16 02:18:59;;;;;;;40.67;12.10;;;6.30;99.90;;;;;;5034202;28;20052;-72
2021/10/16 02:21:26;;;;;;;209.05;20.85;;;6.50;99.90;;;;;;5033687;28;20049;-73
2021/10/16 02:23:53;;;;;;;73.72;13.30;;;6.50;99.90;;;;;;5033756;28;20048;-72
2021/10/16 02:26:20;;;;;;;111.38;14.63;;;6.60;99.90;;;;;;5032956;28;20090;-72
2021/10/16 02:28:47;;;;;;;66.15;14.80;;;6.70;99.90;;;;;;5032542;28;20045;-72
2021/10/16 02:31:16;;;;;;;69.15;14.50;;;6.70;99.90;;;;;;5033399;28;20103;-72
2021/10/16 02:33:43;;;;;;;65.35;13.65;;;6.80;99.90;;;;;;5028716;28;20044;-72
2021/10/16 02:36:10;;;;;;;98.55;15.38;;;6.70;99.90;;;;;;5027525;28;20497;-72
2021/10/16 02:38:37;;;;;;;98.47;15.02;;;6.70;99.90;;;;;;5028958;28;20448;-72
2021/10/16 02:41:04;;;;;;;74.93;14.40;;;6.70;99.90;;;;;;5028268;28;20045;-72
2021/10/16 02:43:31;;;;;;;63.70;12.52;;;6.70;99.90;;;;;;5028215;28;20048;-72
2021/10/16 02:45:58;;;;;;;97.40;15.75;;;6.70;99.90;;;;;;5028416;28;20328;-72
2021/10/16 02:48:26;;;;;;;109.88;17.65;;;6.70;99.90;;;;;;5029276;28;20067;-72
2021/10/16 02:50:54;;;;;;;54.80;13.35;;;6.60;99.90;;;;;;5029205;28;20044;-73
2021/10/16 02:53:21;;;;;;;94.72;13.70;;;6.50;99.90;;;;;;5027197;28;20048;-74
2021/10/16 02:55:48;;;;;;;55.58;13.52;;;6.60;99.90;;;;;;5027708;28;20067;-72
2021/10/16 02:58:15;;;;;;;92.32;12.73;;;6.60;99.90;;;;;;5027620;28;20484;-72
2021/10/16 03:00:42;;;;;;;96.47;13.18;;;6.50;99.90;;;;;;5028704;28;20053;-74
2021/10/16 03:03:09;;;;;;;62.20;11.60;;;6.40;99.90;;;;;;5028419;28;20057;-73
2021/10/16 03:05:37;;;;;;;87.53;12.18;;;6.40;99.90;;;;;;5028176;28;20106;-72
2021/10/16 03:08:04;;;;;;;140.10;16.27;;;6.30;99.90;;;;;;5027857;28;20494;-72
2021/10/16 03:10:31;;;;;;;245.88;20.88;;;6.30;99.90;;;;;;5027583;28;20079;-72
2021/10/16 03:12:58;;;;;;;101.32;12.18;;;6.30;99.90;;;;;;5028478;28;20099;-72
2021/10/16 03:15:25;;;;;;;151.00;15.10;;;6.20;99.90;;;;;;5028574;28;20095;-73
2021/10/16 03:17:53;;;;;;;210.45;17.50;;;6.10;99.90;;;;;;5031634;28;20114;-73
2021/10/16 03:20:20;;;;;;;151.48;15.35;;;6.00;99.90;;;;;;5030837;28;20103;-74
2021/10/16 03:22:48;;;;;;;110.97;15.57;;;5.90;99.90;;;;;;5032510;28;20077;-74
2021/10/16 03:25:15;;;;;;;238.95;22.15;;;5.90;99.90;;;;;;5031596;28;20482;-72
2021/10/16 03:27:42;;;;;;;186.48;18.42;;;5.90;99.90;;;;;;5032510;28;20464;-73
2021/10/16 03:30:10;;;;;;;174.02;18.42;;;5.90;99.90;;;;;;5031474;28;20049;-73
2021/10/16 03:32:37;;;;;;;156.40;19.30;;;6.00;99.90;;;;;;5031071;28;20150;-73
2021/10/16 03:35:04;;;;;;;198.98;20.73;;;6.00;99.90;;;;;;5030127;28;20095;-73
2021/10/16 03:37:31;;;;;;;104.07;14.10;;;6.00;99.90;;;;;;5031146;28;20098;-73
2021/10/16 03:40:00;;;;;;;193.00;19.55;;;6.00;99.90;;;;;;5032344;28;20130;-73
2021/10/16 03:42:27;;;;;;;202.27;16.77;;;5.90;99.90;;;;;;5031163;28;20060;-73
2021/10/16 03:44:54;;;;;;;115.78;15.07;;;5.90;99.90;;;;;;5032210;28;20107;-73
2021/10/16 03:47:21;;;;;;;99.75;14.63;;;6.00;99.90;;;;;;5030574;28;20057;-73
2021/10/16 03:49:48;;;;;;;176.82;17.30;;;6.00;99.90;;;;;;5032025;28;20045;-73
2021/10/16 03:52:15;;;;;;;127.18;15.95;;;6.00;99.90;;;;;;5032189;28;20140;-73
2021/10/16 03:54:42;;;;;;;227.15;18.63;;;5.90;99.90;;;;;;5030908;28;20045;-73
2021/10/16 03:57:10;;;;;;;152.07;17.20;;;5.90;99.90;;;;;;5032647;28;20060;-72
2021/10/16 03:59:41;;;;;;;188.75;18.55;;;6.00;99.90;;;;;;5030379;28;20465;-72
2021/10/16 04:02:09;;;;;;;236.75;21.10;;;6.00;99.90;;;;;;5034404;28;20049;-73
2021/10/16 04:04:36;;;;;;;201.13;22.38;;;5.70;99.90;;;;;;5035722;28;20084;-73
2021/10/16 04:07:03;;;;;;;144.27;16.35;;;5.60;99.90;;;;;;5034753;28;20574;-73
2021/10/16 04:09:30;;;;;;;202.10;19.98;;;5.80;99.90;;;;;;5035144;28;20134;-73
2021/10/16 04:11:57;;;;;;;96.68;13.77;;;5.80;99.90;;;;;;5035126;28;20052;-73
2021/10/16 04:14:26;;;;;;;178.70;18.92;;;5.70;99.90;;;;;;5035555;28;20048;-73
2021/10/16 04:16:53;;;;;;;139.07;17.48;;;5.80;99.90;;;;;;5033495;28;20466;-73
2021/10/16 04:19:19;;;;;;;118.07;15.10;;;5.70;99.90;;;;;;5033824;28;20103;-73
2021/10/16 04:21:47;;;;;;;141.65;14.32;;;5.70;99.90;;;;;;5034049;28;20965;-73
2021/10/16 04:24:14;;;;;;;107.82;13.57;;;5.70;99.90;;;;;;5035570;28;20068;-73
2021/10/16 04:26:41;;;;;;;206.10;16.60;;;5.70;99.90;;;;;;5035062;28;20080;-74
2021/10/16 04:29:08;;;;;;;128.95;14.48;;;5.60;99.90;;;;;;5034579;28;20490;-76
2021/10/16 04:31:36;;;;;;;89.82;12.77;;;5.60;99.90;;;;;;5035313;28;20382;-74
2021/10/16 04:34:04;;;;;;;269.73;19.30;;;5.60;99.90;;;;;;5034953;28;20037;-73
2021/10/16 04:36:31;;;;;;;139.43;14.27;;;5.60;99.90;;;;;;5034269;28;20096;-73
2021/10/16 04:38:59;;;;;;;95.82;12.40;;;5.50;99.90;;;;;;5034507;28;20077;-73
2021/10/16 04:41:26;;;;;;;81.13;12.38;;;5.50;99.90;;;;;;5032961;28;20070;-73
2021/10/16 04:43:53;;;;;;;83.22;10.57;;;5.50;99.90;;;;;;5031596;28;20993;-72
2021/10/16 04:46:24;;;;;;;91.82;14.60;;;5.40;99.90;;;;;;5033549;28;20049;-73
2021/10/16 04:48:53;;;;;;;85.32;11.77;;;5.40;99.90;;;;;;5035711;28;20512;-73
2021/10/16 04:51:20;;;;;;;50.70;9.68;;;5.50;99.90;;;;;;5034100;28;20531;-73
2021/10/16 04:53:47;;;;;;;72.63;11.65;;;5.40;99.90;;;;;;5034333;28;20049;-73
2021/10/16 04:56:14;;;;;;;157.13;13.75;;;5.40;99.90;;;;;;5033434;28;20102;-72
2021/10/16 04:58:41;;;;;;;92.55;11.43;;;5.40;99.90;;;;;;5034458;28;20057;-73
2021/10/16 05:01:08;;;;;;;89.25;12.00;;;5.40;99.90;;;;;;5034069;28;20142;-72
2021/10/16 05:03:35;;;;;;;213.88;19.63;;;5.30;99.90;;;;;;5034082;28;20052;-73
2021/10/16 05:06:04;;;;;;;98.45;13.65;;;5.30;99.90;;;;;;5034513;28;20048;-73
2021/10/16 05:08:31;;;;;;;113.78;12.00;;;5.10;99.90;;;;;;5034080;28;20103;-73
2021/10/16 05:10:58;;;;;;;92.32;11.20;;;5.20;99.90;;;;;;5033152;28;20049;-73
2021/10/16 05:13:25;;;;;;;178.10;14.85;;;5.30;99.90;;;;;;5033351;28;20053;-73
2021/10/16 05:15:52;;;;;;;130.77;14.88;;;5.00;99.90;;;;;;5033720;28;20049;-73
2021/10/16 05:18:21;;;;;;;166.60;16.25;;;5.00;99.90;;;;;;5035344;28;20077;-73
2021/10/16 05:20:49;;;;;;;127.53;14.18;;;5.10;99.90;;;;;;5034919;28;20294;-73
2021/10/16 05:23:18;;;;;;;175.65;12.70;;;4.90;99.90;;;;;;5033525;28;20057;-73
2021/10/16 05:25:45;;;;;;;210.25;15.40;;;5.00;99.90;;;;;;5034491;28;20414;-73
2021/10/16 05:28:12;;;;;;;109.97;12.40;;;5.00;99.90;;;;;;5033975;28;20096;-73
2021/10/16 05:30:41;;;;;;;114.20;10.88;;;5.10;99.90;;;;;;5033904;28;20826;-73
2021/10/16 05:33:08;;;;;;;106.00;11.82;;;5.10;99.90;;;;;;5034365;28;20045;-73
2021/10/16 05:35:35;;;;;;;97.30;12.95;;;5.10;99.90;;;;;;5034418;28;20061;-73
2021/10/16 05:38:02;;;;;;;145.48;12.95;;;5.20;99.90;;;;;;5034312;28;20111;-73
2021/10/16 05:40:30;;;;;;;77.75;11.60;;;5.10;99.90;;;;;;5035318;28;20044;-72
2021/10/16 05:42:57;;;;;;;98.95;10.55;;;5.10;99.90;;;;;;5034708;28;20122;-73
2021/10/16 05:45:24;;;;;;;130.80;13.15;;;5.20;99.90;;;;;;5034568;28;20049;-73
2021/10/16 05:47:51;;;;;;;95.18;11.52;;;5.10;99.90;;;;;;5035125;28;20052;-73
2021/10/16 05:50:18;;;;;;;92.65;10.73;;;5.20;99.90;;;;;;5034622;28;20523;-73
2021/10/16 05:52:46;;;;;;;63.10;9.15;;;5.10;99.90;;;;;;5034108;28;20068;-73
2021/10/16 05:55:13;;;;;;;132.50;13.33;;;5.00;99.90;;;;;;5034643;28;20052;-73
2021/10/16 05:57:41;;;;;;;100.65;12.85;;;5.00;99.90;;;;;;5034352;28;20142;-73
2021/10/16 06:00:09;;;;;;;112.83;11.40;;;4.80;99.90;;;;;;5033656;28;20045;-74
2021/10/16 06:02:36;;;;;;;160.40;14.43;;;5.00;99.90;;;;;;5034401;28;20057;-73
2021/10/16 06:05:03;;;;;;;128.33;13.20;;;4.90;99.90;;;;;;5034550;28;20102;-73
2021/10/16 06:07:30;;;;;;;110.37;13.17;;;4.80;99.90;;;;;;5033233;28;20501;-73
2021/10/16 06:09:57;;;;;;;102.43;10.83;;;5.00;99.90;;;;;;5033997;28;20460;-73
2021/10/16 06:12:24;;;;;;;104.53;12.50;;;5.00;99.90;;;;;;5034647;28;20049;-74
2021/10/16 06:14:53;;;;;;;81.18;11.38;;;5.10;99.90;;;;;;5032931;28;20849;-73
2021/10/16 06:17:20;;;;;;;107.85;12.57;;;5.10;99.90;;;;;;5033218;28;20099;-73
2021/10/16 06:19:47;;;;;;;126.68;12.60;;;5.00;99.90;;;;;;5033831;28;20064;-73
2021/10/16 06:22:14;;;;;;;121.50;11.23;;;5.00;99.90;;;;;;5033635;28;20053;-73
2021/10/16 06:24:41;;;;;;;186.60;15.40;;;5.20;99.90;;;;;;5032275;28;20053;-73
2021/10/16 06:27:07;;;;;;;231.45;16.15;;;5.20;99.90;;;;;;5033340;28;20076;-73
2021/10/16 06:29:34;;;;;;;102.80;11.23;;;4.90;99.90;;;;;;5033805;28;20146;-73
2021/10/16 06:32:03;;;;;;;185.13;15.18;;;5.10;99.90;;;;;;5035800;28;20107;-72
2021/10/16 06:34:30;;;;;;;150.80;13.73;;;5.10;99.90;;;;;;5033370;28;20049;-73
2021/10/16 06:36:57;;;;;;;179.85;13.20;;;5.10;99.90;;;;;;5034490;28;20049;-73
2021/10/16 06:39:24;;;;;;;75.68;10.85;;;5.20;99.90;;;;;;5033438;28;20095;-72
2021/10/16 06:41:52;;;;;;;92.28;10.75;;;5.20;99.90;;;;;;5034165;28;20185;-72
2021/10/16 06:44:19;;;;;;;66.93;9.95;;;5.10;99.90;;;;;;5032746;28;20056;-73
2021/10/16 06:46:46;;;;;;;101.07;12.60;;;5.20;99.90;;;;;;5033258;28;20114;-72
2021/10/16 06:49:14;;;;;;;54.25;9.00;;;5.30;99.90;;;;;;5032374;28;20049;-73
2021/10/16 06:51:42;;;;;;;70.45;10.02;;;5.50;99.90;;;;;;5032197;28;20057;-73
2021/10/16 06:54:10;;;;;;;43.75;9.00;;;5.50;99.90;;;;;;5032707;28;20132;-72
2021/10/16 06:56:37;;;;;;;99.22;10.73;;;5.50;99.90;;;;;;5031734;28;20052;-73
2021/10/16 06:59:04;;;;;;;76.35;9.80;;;5.40;99.90;;;;;;5031970;28;20041;-73
2021/10/16 07:01:31;;;;;;;146.95;13.20;;;5.50;99.90;;;;;;5031803;28;20221;-73
2021/10/16 07:03:58;;;;;;;48.70;9.98;;;5.30;99.90;;;;;;5032719;28;20053;-73
2021/10/16 07:06:26;;;;;;;86.10;9.80;;;5.60;99.90;;;;;;5032608;28;20103;-73
2021/10/16 07:08:53;;;;;;;58.97;9.88;;;5.40;99.90;;;;;;5033099;28;20224;-73
2021/10/16 07:11:20;;;;;;;51.25;10.00;;;5.50;99.90;;;;;;5030795;28;20041;-73
2021/10/16 07:13:47;;;;;;;248.68;18.92;;;5.70;99.90;;;;;;5029312;28;20092;-73
2021/10/16 07:16:14;;;;;;;49.90;8.18;;;5.60;99.90;;;;;;5029318;28;20460;-74
2021/10/16 07:18:41;;;;;;;62.83;11.07;;;5.70;99.90;;;;;;5028582;28;20658;-73
2021/10/16 07:21:08;;;;;;;176.57;13.38;;;5.70;99.90;;;;;;5028533;28;20041;-74
2021/10/16 07:23:37;;;;;;;250.10;19.20;;;5.60;99.90;;;;;;5028906;28;21428;-73
2021/10/16 07:26:04;;;;;;;105.72;11.32;;;5.60;99.90;;;;;;5028393;28;20111;-73
2021/10/16 07:28:31;;;;;;;166.60;13.57;;;5.50;99.90;;;;;;5027874;28;20163;-74
2021/10/16 07:30:58;;;;;;;121.47;11.25;;;5.60;99.90;;;;;;5028893;28;20052;-72
2021/10/16 07:33:25;;;;;;;63.33;8.65;;;5.50;99.90;;;;;;5028880;28;20456;-72
2021/10/16 07:35:52;;;;;;;202.25;15.60;;;5.80;99.90;;;;;;5033716;28;20091;-73
2021/10/16 07:38:22;;;;;;;69.13;8.20;;;5.40;99.90;;;;;;5034324;28;20472;-72
2021/10/16 07:40:50;;;;;;;72.28;9.98;;;5.80;99.90;;;;;;5031966;28;20049;-72
2021/10/16 07:43:17;;;;;;;154.55;11.45;;;6.00;99.90;;;;;;5031059;28;20468;-73
2021/10/16 07:45:44;;;;;;;43.10;8.35;;;5.60;99.90;;;;;;5032282;28;20118;-73
2021/10/16 07:48:11;;;;;;;34.67;7.10;;;5.90;99.90;;;;;;5035448;28;20456;-73
2021/10/16 07:50:38;;;;;;;38.92;7.80;;;6.10;99.90;;;;;;5034854;28;20049;-73
2021/10/16 07:53:05;;;;;;;38.40;8.15;;;6.20;99.90;;;;;;5036202;28;20045;-74
2021/10/16 07:55:32;;;;;;;48.92;7.50;;;6.20;99.90;;;;;;5035291;28;20056;-74
2021/10/16 07:58:01;;;;;;;47.20;7.57;;;6.30;99.90;;;;;;5035190;28;20134;-74
2021/10/16 08:00:28;;;;;;;55.40;8.70;;;6.10;99.90;;;;;;5035183;28;20576;-73
2021/10/16 08:03:01;;;;;;;74.63;9.55;;;6.20;99.90;;;;;;5035587;28;20045;-74
2021/10/16 08:05:28;;;;;;;63.80;8.90;;;6.20;99.90;;;;;;5034542;28;20126;-73
2021/10/16 08:07:55;;;;;;;170.52;12.63;;;6.30;99.90;;;;;;5034929;28;20178;-74
2021/10/16 08:10:22;;;;;;;18.52;6.72;;;6.10;99.90;;;;;;5034067;28;20563;-74
2021/10/16 08:12:49;;;;;;;45.75;7.72;;;6.30;99.90;;;;;;5035624;28;20475;-74
2021/10/16 08:15:18;;;;;;;44.97;8.23;;;6.30;99.90;;;;;;5034230;28;20083;-75
2021/10/16 08:17:45;;;;;;;22.88;6.82;;;6.20;99.90;;;;;;5035237;28;20103;-73
2021/10/16 08:20:13;;;;;;;16.05;6.15;;;6.30;99.90;;;;;;5036666;28;20126;-75
2021/10/16 08:22:42;;;;;;;78.13;10.45;;;6.50;99.90;;;;;;5034506;28;20222;-74
2021/10/16 08:25:11;;;;;;;21.85;7.38;;;6.50;99.90;;;;;;5036175;28;20045;-73
2021/10/16 08:27:38;;;;;;;24.63;7.10;;;6.60;99.90;;;;;;5036064;28;20437;-73
2021/10/16 08:30:07;;;;;;;24.48;6.80;;;6.70;99.90;;;;;;5034234;28;20144;-72
2021/10/16 08:32:37;;;;;;;27.33;7.15;;;6.90;99.90;;;;;;5032149;28;20056;-73
2021/10/16 08:35:05;;;;;;;18.23;6.47;;;6.90;99.90;;;;;;5032419;28;20044;-73
2021/10/16 08:37:32;;;;;;;35.60;7.82;;;7.00;99.90;;;;;;5031890;28;20057;-73
2021/10/16 08:39:59;;;;;;;18.95;6.10;;;6.90;99.90;;;;;;5033187;28;20072;-72
2021/10/16 08:42:26;;;;;;;13.95;5.47;;;7.20;99.90;;;;;;5032185;28;20049;-73
2021/10/16 08:44:58;;;;;;;15.65;5.78;;;7.40;99.90;;;;;;5032364;28;20537;-73
2021/10/16 08:47:28;;;;;;;30.23;7.22;;;7.50;99.90;;;;;;5030988;28;20497;-72
2021/10/16 08:49:57;;;;;;;30.30;6.43;;;7.30;99.90;;;;;;5031711;28;20172;-73
2021/10/16 08:52:24;;;;;;;31.63;6.47;;;7.30;99.90;;;;;;5031964;28;20134;-75
2021/10/16 08:54:51;;;;;;;17.52;5.97;;;7.30;99.90;;;;;;5032624;28;20080;-74
2021/10/16 08:57:20;;;;;;;24.95;5.88;;;7.30;99.90;;;;;;5032360;28;20126;-75
2021/10/16 08:59:47;;;;;;;16.60;5.25;;;7.30;99.90;;;;;;5032171;28;20052;-75
2021/10/16 09:02:14;;;;;;;16.63;5.68;;;7.30;99.90;;;;;;5031304;28;20049;-75
2021/10/16 09:04:41;;;;;;;15.02;6.28;;;7.30;99.90;;;;;;5032244;28;20345;-74
2021/10/16 09:07:23;;;;;;;26.70;6.45;;;7.30;99.90;;;;;;5031802;28;20105;-74
2021/10/16 09:09:51;;;;;;;22.55;7.82;;;7.20;99.90;;;;;;5033410;28;20525;-73
2021/10/16 09:12:19;;;;;;;17.58;5.38;;;7.30;99.90;;;;;;5031877;28;20045;-74
2021/10/16 09:14:46;;;;;;;30.60;7.15;;;7.40;99.90;;;;;;5032096;28;20052;-74
2021/10/16 09:17:15;;;;;;;28.25;6.45;;;7.00;99.90;;;;;;5031940;28;20249;-74
2021/10/16 09:19:42;;;;;;;15.60;5.57;;;7.10;99.90;;;;;;5032294;28;20614;-74
2021/10/16 09:22:11;;;;;;;15.95;5.18;;;7.20;99.90;;;;;;5031614;28;20056;-74
2021/10/16 09:24:41;;;;;;;29.92;6.40;;;7.30;99.90;;;;;;5031982;28;20519;-74
2021/10/16 09:27:10;;;;;;;16.50;5.40;;;7.50;99.90;;;;;;5031129;28;20465;-73
2021/10/16 09:29:40;;;;;;;16.15;4.97;;;7.40;99.90;;;;;;5032537;28;20045;-74
2021/10/16 09:32:11;;;;;;;20.65;5.93;;;7.00;99.90;;;;;;5031756;28;20056;-73
2021/10/16 09:34:40;;;;;;;10.70;5.75;;;7.40;99.90;;;;;;5030209;28;20041;-75
2021/10/16 09:37:10;;;;;;;14.60;5.93;;;7.50;99.90;;;;;;5030513;28;20041;-73
2021/10/16 09:39:40;;;;;;;10.38;5.32;;;7.40;99.90;;;;;;5030699;28;20502;-73
2021/10/16 09:42:09;;;;;;;15.85;6.25;;;7.50;99.90;;;;;;5030565;28;20051;-73
2021/10/16 09:44:38;;;;;;;17.50;6.35;;;7.70;99.90;;;;;;5030656;28;20068;-73
2021/10/16 09:47:11;;;;;;;11.20;6.03;;;7.50;99.90;;;;;;5030002;28;20080;-73
2021/10/16 09:49:41;;;;;;;10.15;6.25;;;7.70;99.90;;;;;;5030195;28;20045;-73
2021/10/16 09:52:09;;;;;;;12.00;5.68;;;7.60;99.90;;;;;;5029942;28;20053;-73
2021/10/16 09:54:37;;;;;;;10.77;5.55;;;8.10;99.90;;;;;;5028431;28;20137;-73
2021/10/16 09:57:06;;;;;;;10.55;5.75;;;8.30;99.90;;;;;;5028868;28;20091;-73
2021/10/16 09:59:36;;;;;;;9.82;5.88;;;8.50;99.90;;;;;;5028897;28;20428;-73
2021/10/16 10:02:05;;;;;;;12.23;5.45;;;8.60;99.90;;;;;;5029498;28;20080;-73
2021/10/16 10:04:36;;;;;;;14.10;5.78;;;8.40;99.90;;;;;;5031549;28;20077;-74
2021/10/16 10:07:03;;;;;;;12.95;6.18;;;8.60;99.90;;;;;;5032242;28;20080;-74
2021/10/16 10:09:32;;;;;;;11.35;5.35;;;8.60;99.90;;;;;;5032721;28;20149;-73
2021/10/16 10:12:00;;;;;;;11.25;5.95;;;8.70;99.90;;;;;;5032609;28;20617;-73
2021/10/16 10:14:28;;;;;;;10.52;5.30;;;8.70;99.90;;;;;;5032867;28;20585;-73
2021/10/16 10:17:00;;;;;;;9.15;6.00;;;8.20;99.90;;;;;;5031758;28;20549;-73
2021/10/16 10:19:29;;;;;;;10.50;6.65;;;8.60;99.90;;;;;;5031260;28;20426;-73
2021/10/16 10:21:57;;;;;;;9.77;5.88;;;8.90;99.90;;;;;;5032289;28;20118;-73
2021/10/16 10:24:37;;;;;;;10.63;6.15;;;9.30;99.90;;;;;;5032948;28;20141;-73
2021/10/16 10:27:07;;;;;;;11.80;5.80;;;9.50;99.90;;;;;;5031190;28;20051;-73
2021/10/16 10:29:36;;;;;;;10.93;6.68;;;9.20;99.90;;;;;;5031309;28;20571;-73
2021/10/16 10:32:07;;;;;;;12.80;5.30;;;9.60;99.90;;;;;;5031387;28;20424;-73
2021/10/16 10:34:38;;;;;;;11.77;6.18;;;9.40;99.90;;;;;;5032636;28;20092;-73
2021/10/16 10:37:08;;;;;;;11.50;6.13;;;9.30;99.90;;;;;;5032353;28;20650;-73
2021/10/16 10:39:54;;;;;;;12.63;6.43;;;9.20;99.90;;;;;;5030807;28;20053;-73
2021/10/16 10:42:46;;;;;;;11.43;6.85;;;9.10;99.90;;;;;;5031831;28;20041;-73
2021/10/16 10:45:38;;;;;;;12.90;6.10;;;9.30;99.90;;;;;;5031012;28;20037;-73
2021/10/16 10:48:41;;;;;;;10.00;5.82;;;9.50;99.90;;;;;;5033069;28;20052;-73
2021/10/16 10:51:08;;;;;;;11.32;5.93;;;9.60;99.90;;;;;;5032105;28;20068;-73
2021/10/16 10:53:42;;;;;;;16.27;6.25;;;10.10;99.90;;;;;;5030251;28;20820;-73
2021/10/16 10:56:21;;;;;;;12.65;6.40;;;11.00;99.90;;;;;;5031240;28;20513;-73
2021/10/16 10:59:01;;;;;;;11.15;6.40;;;11.40;99.90;;;;;;5031735;28;20500;-73
2021/10/16 11:02:05;;;;;;;9.45;6.32;;;10.40;99.90;;;;;;5032263;28;20081;-73
2021/10/16 11:04:54;;;;;;;13.27;5.80;;;9.90;99.90;;;;;;5031221;28;20083;-72
2021/10/16 11:07:41;;;;;;;10.60;6.13;;;11.10;99.90;;;;;;5031009;28;20489;-72
2021/10/16 11:10:09;;;;;;;10.52;6.00;;;11.80;99.90;;;;;;5034839;28;20128;-72
2021/10/16 11:12:37;;;;;;;11.02;5.80;;;12.00;99.90;;;;;;5038413;28;20049;-73
2021/10/16 11:15:06;;;;;;;10.73;6.50;;;11.50;99.90;;;;;;5035703;28;20052;-73
2021/10/16 11:17:38;;;;;;;11.23;6.75;;;12.50;99.90;;;;;;5035577;28;20044;-73
2021/10/16 11:20:09;;;;;;;10.05;6.22;;;12.60;99.90;;;;;;5035819;28;20447;-73
2021/10/16 11:22:43;;;;;;;11.02;6.32;;;13.20;99.90;;;;;;5035206;28;20048;-73
2021/10/16 11:25:14;;;;;;;9.25;5.60;;;13.50;99.90;;;;;;5035375;28;20429;-73
2021/10/16 11:27:41;;;;;;;9.23;5.68;;;15.90;99.90;;;;;;5036323;28;20053;-73
2021/10/16 11:30:17;;;;;;;8.20;5.50;;;21.40;99.90;;;;;;5033737;28;20045;-73
2021/10/16 11:32:44;;;;;;;8.65;5.13;;;23.70;99.90;;;;;;5034786;28;20083;-73
2021/10/16 11:35:12;;;;;;;13.93;5.95;;;22.70;99.90;;;;;;5035291;28;20174;-73
2021/10/16 11:37:47;;;;;;;9.18;5.13;;;23.40;99.90;;;;;;5035173;28;20037;-73
2021/10/16 11:40:16;;;;;;;9.10;5.22;;;24.40;99.90;;;;;;5035792;28;20536;-73
2021/10/16 11:42:45;;;;;;;8.32;4.72;;;24.30;99.90;;;;;;5033463;28;20326;-73
2021/10/16 11:45:15;;;;;;;9.35;5.25;;;23.60;99.90;;;;;;5031387;28;20044;-73
2021/10/16 11:47:44;;;;;;;7.63;5.43;;;25.40;99.90;;;;;;5031853;28;20502;-74
2021/10/16 11:50:17;;;;;;;8.10;5.47;;;23.40;99.90;;;;;;5031537;28;20056;-73
2021/10/16 11:52:45;;;;;;;8.63;5.53;;;22.00;99.90;;;;;;5031894;28;20151;-73
2021/10/16 11:55:18;;;;;;;7.70;5.32;;;23.90;99.90;;;;;;5030966;28;20077;-73
2021/10/16 11:57:45;;;;;;;8.05;5.32;;;24.20;99.90;;;;;;5032931;28;20469;-73
2021/10/16 12:00:23;;;;;;;10.15;5.53;;;24.90;99.90;;;;;;5034682;28;20133;-73
2021/10/16 12:02:50;;;;;;;11.35;6.38;;;23.50;99.90;;;;;;5037288;28;20114;-74
2021/10/16 12:05:21;;;;;;;11.20;5.63;;;25.20;99.90;;;;;;5036989;28;20049;-73
2021/10/16 12:07:48;;;;;;;9.45;5.93;;;25.80;99.90;;;;;;5035055;28;20053;-73
2021/10/16 12:10:20;;;;;;;12.10;5.38;;;25.10;99.90;;;;;;5036622;28;20343;-74
2021/10/16 12:13:09;;;;;;;9.23;6.10;;;25.50;99.90;;;;;;5036253;28;20091;-73
2021/10/16 12:15:41;;;;;;;13.15;7.25;;;24.90;99.90;;;;;;5028662;28;20088;-73
2021/10/16 12:18:17;;;;;;;8.98;6.13;;;23.50;99.90;;;;;;5037808;28;20576;-73
2021/10/16 12:20:49;;;;;;;9.32;5.95;;;22.70;99.90;;;;;;5034725;28;20080;-73
2021/10/16 12:23:16;;;;;;;11.98;6.97;;;24.30;99.90;;;;;;5033578;28;20440;-73
2021/10/16 12:25:48;;;;;;;12.40;6.72;;;24.70;99.90;;;;;;5031874;28;20094;-73
2021/10/16 12:28:16;;;;;;;8.02;5.32;;;25.50;99.90;;;;;;5036960;28;20175;-74
2021/10/16 12:31:03;;;;;;;12.35;5.35;;;25.80;99.90;;;;;;5032457;28;20505;-73
2021/10/16 12:33:30;;;;;;;9.38;5.28;;;23.60;99.90;;;;;;5033140;28;20051;-73
2021/10/16 12:36:00;;;;;;;8.20;4.90;;;22.80;99.90;;;;;;5033025;28;20041;-73
2021/10/16 12:38:29;;;;;;;8.75;5.30;;;24.40;99.90;;;;;;5032966;28;20076;-73
2021/10/16 12:40:56;;;;;;;8.85;5.38;;;23.60;99.90;;;;;;5033565;28;20517;-74
2021/10/16 12:43:25;;;;;;;7.45;4.80;;;24.70;99.90;;;;;;5032222;28;20132;-73
2021/10/16 12:45:52;;;;;;;9.38;4.22;;;23.80;99.90;;;;;;5032913;28;20053;-73